Time;durP1;ratioP1;P1;durP2;ratioP2;P2;SDS_P1;SDS_P2;PMS_P1;PMS_P2;Temp;Humidity;BMP_temperature;BMP_pressure;BME280_temperature;BME280_humidity;BME280_pressure;Samples;Min_cycle;Max_cycle;Signal;HPM_P1;HPM_P2
2021/05/27 00:00:23;;;;;;;8.45;6.70;;;19.90;84.30;;;;;;5116673;28;20490;-76
2021/05/27 00:02:49;;;;;;;8.88;7.05;;;19.90;84.30;;;;;;5116799;28;20035;-75
2021/05/27 00:05:15;;;;;;;10.88;6.85;;;19.80;84.40;;;;;;5116587;28;20028;-75
2021/05/27 00:07:42;;;;;;;9.88;7.35;;;19.80;84.50;;;;;;5116543;28;20100;-75
2021/05/27 00:10:10;;;;;;;9.27;6.53;;;19.80;85.00;;;;;;5116210;28;20043;-75
2021/05/27 00:12:36;;;;;;;10.30;7.47;;;19.80;85.00;;;;;;5098071;28;20028;-74
2021/05/27 00:15:04;;;;;;;10.10;6.68;;;19.80;84.70;;;;;;5115995;28;20083;-75
2021/05/27 00:17:30;;;;;;;10.15;7.40;;;19.80;85.10;;;;;;5098107;28;20040;-76
2021/05/27 00:19:56;;;;;;;11.73;6.93;;;19.70;84.90;;;;;;5116114;28;20543;-75
2021/05/27 00:22:22;;;;;;;11.02;6.95;;;19.80;85.30;;;;;;5116132;28;20141;-76
2021/05/27 00:24:48;;;;;;;11.45;7.72;;;19.70;85.30;;;;;;5116279;28;20039;-76
2021/05/27 00:27:14;;;;;;;12.38;6.95;;;19.70;85.60;;;;;;5115993;28;20513;-75
2021/05/27 00:29:40;;;;;;;12.20;7.65;;;19.70;85.60;;;;;;5116648;28;20501;-76
2021/05/27 00:32:06;;;;;;;12.13;7.85;;;19.70;85.20;;;;;;5116082;28;20066;-76
2021/05/27 00:34:32;;;;;;;9.68;8.18;;;19.70;85.20;;;;;;5097839;28;20039;-74
2021/05/27 00:36:58;;;;;;;13.55;8.70;;;19.70;85.20;;;;;;5097853;28;20405;-76
2021/05/27 00:39:24;;;;;;;12.00;9.25;;;19.70;85.50;;;;;;5115732;28;20038;-76
2021/05/27 00:41:50;;;;;;;14.13;9.73;;;19.60;85.90;;;;;;5115533;28;20035;-76
2021/05/27 00:44:24;;;;;;;10.80;8.45;;;19.60;85.90;;;;;;5115862;28;20122;-74
2021/05/27 00:46:51;;;;;;;13.52;8.75;;;19.60;86.00;;;;;;5097229;28;20166;-75
2021/05/27 00:49:18;;;;;;;17.38;9.70;;;19.60;86.30;;;;;;5080508;28;20041;-75
2021/05/27 00:51:45;;;;;;;15.55;9.52;;;19.70;86.30;;;;;;5115676;28;20036;-76
2021/05/27 00:54:12;;;;;;;16.20;9.43;;;19.60;86.40;;;;;;5097243;28;20032;-76
2021/05/27 00:56:39;;;;;;;15.65;9.73;;;19.60;87.50;;;;;;5097351;28;20032;-75
2021/05/27 00:59:05;;;;;;;18.15;10.25;;;19.60;88.00;;;;;;5115385;28;20067;-75
2021/05/27 01:01:32;;;;;;;14.05;10.00;;;19.60;88.10;;;;;;5097222;28;20496;-75
2021/05/27 01:03:58;;;;;;;16.02;10.65;;;19.60;88.30;;;;;;5115592;28;20048;-74
2021/05/27 01:06:24;;;;;;;14.90;10.25;;;19.60;88.40;;;;;;5115388;28;20044;-75
2021/05/27 01:08:50;;;;;;;13.95;10.13;;;19.60;88.70;;;;;;5115162;28;20448;-75
2021/05/27 01:11:17;;;;;;;14.82;10.40;;;19.60;88.80;;;;;;5097451;28;20126;-76
2021/05/27 01:13:45;;;;;;;16.08;11.15;;;19.50;88.40;;;;;;5097240;28;20046;-75
2021/05/27 01:16:21;;;;;;;15.85;11.02;;;19.60;88.70;;;;;;5115413;28;20431;-75
2021/05/27 01:18:49;;;;;;;14.18;9.98;;;19.50;88.30;;;;;;5097671;28;20050;-76
2021/05/27 01:21:16;;;;;;;11.98;9.23;;;19.50;88.40;;;;;;5097064;28;20058;-76
2021/05/27 01:23:44;;;;;;;12.70;9.77;;;19.50;88.40;;;;;;5115420;28;20039;-75
2021/05/27 01:26:12;;;;;;;15.00;9.68;;;19.40;88.50;;;;;;5097488;28;20028;-76
2021/05/27 01:28:41;;;;;;;12.85;9.15;;;19.40;88.50;;;;;;5115545;28;20061;-75
2021/05/27 01:31:08;;;;;;;12.18;8.90;;;19.40;88.60;;;;;;5096383;28;20069;-76
2021/05/27 01:33:37;;;;;;;14.60;10.15;;;19.30;88.70;;;;;;5096596;28;20023;-75
2021/05/27 01:36:09;;;;;;;12.25;8.88;;;19.40;88.70;;;;;;5097057;28;20039;-75
2021/05/27 01:38:35;;;;;;;16.33;8.80;;;19.40;88.80;;;;;;5079424;28;20035;-75
2021/05/27 01:41:03;;;;;;;16.00;9.93;;;19.40;88.70;;;;;;5114697;28;20491;-75
2021/05/27 01:43:30;;;;;;;13.00;9.48;;;19.40;88.50;;;;;;5114409;28;20090;-76
2021/05/27 01:45:56;;;;;;;14.80;9.52;;;19.30;88.70;;;;;;5096251;28;20445;-76
2021/05/27 01:48:23;;;;;;;15.35;9.52;;;19.30;88.60;;;;;;5096469;28;20122;-75
2021/05/27 01:50:50;;;;;;;15.38;9.30;;;19.40;89.00;;;;;;5095989;28;20036;-76
2021/05/27 01:53:21;;;;;;;12.10;9.32;;;19.40;88.60;;;;;;5080407;28;20088;-75
2021/05/27 01:55:49;;;;;;;16.20;10.30;;;19.40;88.60;;;;;;5079153;28;20043;-76
2021/05/27 01:58:16;;;;;;;14.52;8.90;;;19.50;88.90;;;;;;5095878;28;20059;-75
2021/05/27 02:00:45;;;;;;;16.30;9.52;;;19.50;88.80;;;;;;5113573;28;20032;-75
2021/05/27 02:03:12;;;;;;;13.40;9.50;;;19.60;88.80;;;;;;5095946;28;20368;-76
2021/05/27 02:05:43;;;;;;;15.43;9.63;;;19.50;88.70;;;;;;5096070;28;20069;-74
2021/05/27 02:08:11;;;;;;;16.65;10.32;;;19.60;89.00;;;;;;5096355;28;20027;-75
2021/05/27 02:10:45;;;;;;;17.02;10.23;;;19.60;89.20;;;;;;5096068;28;20043;-77
2021/05/27 02:13:11;;;;;;;16.30;10.20;;;19.60;89.00;;;;;;5096080;28;20452;-76
2021/05/27 02:15:40;;;;;;;10.30;7.40;;;19.60;88.60;;;;;;5113975;28;20075;-77
2021/05/27 02:18:08;;;;;;;18.55;10.25;;;19.60;88.60;;;;;;5095648;28;20028;-78
2021/05/27 02:20:36;;;;;;;18.38;10.10;;;19.70;88.20;;;;;;5095737;28;20044;-76
2021/05/27 02:23:02;;;;;;;16.05;9.65;;;19.60;88.00;;;;;;5113757;28;20031;-76
2021/05/27 02:25:48;;;;;;;16.38;9.40;;;19.60;88.00;;;;;;5102538;28;20051;-77
2021/05/27 02:28:37;;;;;;;15.32;10.02;;;19.60;88.30;;;;;;5112824;28;20046;-77
2021/05/27 02:31:04;;;;;;;18.33;9.65;;;19.70;88.80;;;;;;5113625;28;20484;-77
2021/05/27 02:33:35;;;;;;;14.82;9.85;;;19.70;88.90;;;;;;5095869;28;20031;-76
2021/05/27 02:36:12;;;;;;;17.92;10.55;;;19.70;89.00;;;;;;5095473;28;20040;-76
2021/05/27 02:38:38;;;;;;;17.15;10.55;;;19.70;89.10;;;;;;5113514;28;20043;-76
2021/05/27 02:41:07;;;;;;;14.98;9.75;;;19.70;89.20;;;;;;5095263;28;20517;-77
2021/05/27 02:43:35;;;;;;;16.13;10.27;;;19.70;89.10;;;;;;5078393;28;20028;-76
2021/05/27 02:46:07;;;;;;;18.98;11.05;;;19.70;88.90;;;;;;5095215;28;20150;-76
2021/05/27 02:48:33;;;;;;;16.65;9.32;;;19.70;88.90;;;;;;5094835;28;20172;-76
2021/05/27 02:51:00;;;;;;;16.65;10.68;;;19.70;89.10;;;;;;5095349;28;20032;-75
2021/05/27 02:53:28;;;;;;;15.90;10.45;;;19.70;89.20;;;;;;5095338;28;20047;-76
2021/05/27 02:55:54;;;;;;;20.45;12.25;;;19.80;89.40;;;;;;5094909;28;20039;-76
2021/05/27 02:58:22;;;;;;;17.63;10.50;;;19.70;89.60;;;;;;5095200;28;20075;-76
2021/05/27 03:00:49;;;;;;;17.38;11.65;;;19.70;89.30;;;;;;5113239;28;20084;-75
2021/05/27 03:03:22;;;;;;;16.98;11.40;;;19.70;89.40;;;;;;5113401;28;20043;-75
2021/05/27 03:05:49;;;;;;;18.20;12.05;;;19.70;89.50;;;;;;5112906;28;20127;-75
2021/05/27 03:08:17;;;;;;;19.48;11.60;;;19.70;89.40;;;;;;5094849;28;20396;-75
2021/05/27 03:10:45;;;;;;;20.90;12.63;;;19.70;89.50;;;;;;5094933;28;20032;-77
2021/05/27 03:13:12;;;;;;;20.17;11.95;;;19.70;89.60;;;;;;5095046;28;20408;-76
2021/05/27 03:15:38;;;;;;;22.27;13.32;;;19.70;89.60;;;;;;5112578;28;20055;-76
2021/05/27 03:18:07;;;;;;;20.48;12.20;;;19.70;90.00;;;;;;5112978;28;20123;-75
2021/05/27 03:20:35;;;;;;;18.40;12.35;;;19.70;90.00;;;;;;5077871;28;20039;-77
2021/05/27 03:23:03;;;;;;;19.33;12.25;;;19.70;90.00;;;;;;5078264;28;20444;-76
2021/05/27 03:25:30;;;;;;;19.25;13.48;;;19.80;90.00;;;;;;5094755;28;20066;-76
2021/05/27 03:27:56;;;;;;;21.92;13.93;;;19.80;90.00;;;;;;5094512;28;20038;-76
2021/05/27 03:30:24;;;;;;;22.90;12.85;;;19.80;89.80;;;;;;5095469;28;20150;-75
2021/05/27 03:32:50;;;;;;;19.50;12.48;;;19.80;89.60;;;;;;5121692;28;20036;-77
2021/05/27 03:35:18;;;;;;;20.77;13.18;;;19.80;89.60;;;;;;5115015;28;20071;-76
2021/05/27 03:37:45;;;;;;;21.92;13.05;;;19.80;89.70;;;;;;5094062;28;20040;-78
2021/05/27 03:40:13;;;;;;;22.40;13.93;;;19.70;89.60;;;;;;5112716;28;20505;-76
2021/05/27 03:42:47;;;;;;;20.77;12.90;;;19.80;90.00;;;;;;5112711;28;20539;-75
2021/05/27 03:45:16;;;;;;;23.52;14.40;;;19.70;90.10;;;;;;5094358;28;20352;-75
2021/05/27 03:47:54;;;;;;;22.73;13.80;;;19.80;90.00;;;;;;5079038;28;20038;-75
2021/05/27 03:50:24;;;;;;;21.88;14.32;;;19.80;90.20;;;;;;5077939;28;20043;-75
2021/05/27 03:52:50;;;;;;;21.88;14.18;;;19.80;90.20;;;;;;5094233;28;20032;-75
2021/05/27 03:55:18;;;;;;;21.38;13.88;;;19.70;90.10;;;;;;5112527;28;20077;-73
2021/05/27 03:57:46;;;;;;;23.10;15.18;;;19.70;90.10;;;;;;5112532;28;20040;-76
2021/05/27 04:03:06;;;;;;;17.83;11.98;;;19.70;90.30;;;;;;5094386;28;20497;-76
2021/05/27 04:08:25;;;;;;;23.13;14.23;;;19.50;90.30;;;;;;5112431;28;20035;-80
2021/05/27 04:10:51;;;;;;;20.35;13.68;;;19.60;90.30;;;;;;5112489;28;20164;-72
2021/05/27 04:13:17;;;;;;;19.23;13.07;;;19.60;90.20;;;;;;5111940;28;20040;-76
2021/05/27 04:15:44;;;;;;;21.42;14.02;;;19.70;90.40;;;;;;5076415;28;20063;-73
2021/05/27 04:18:15;;;;;;;22.20;14.45;;;19.70;90.50;;;;;;5112335;28;20035;-75
2021/05/27 04:20:59;;;;;;;19.35;12.60;;;19.70;90.40;;;;;;5112435;28;20043;-74
2021/05/27 04:23:34;;;;;;;20.08;12.18;;;19.80;90.40;;;;;;5115192;28;20051;-71
2021/05/27 04:26:05;;;;;;;21.27;12.45;;;19.60;90.20;;;;;;5097823;28;20039;-71
2021/05/27 04:28:31;;;;;;;19.88;13.05;;;19.70;90.40;;;;;;5115971;28;20116;-75
2021/05/27 04:31:10;;;;;;;20.35;13.02;;;19.60;90.30;;;;;;5116353;28;20055;-72
2021/05/27 04:33:42;;;;;;;18.55;12.20;;;19.60;90.40;;;;;;5080901;28;20411;-73
2021/05/27 04:36:13;;;;;;;21.17;13.10;;;19.50;90.50;;;;;;5115801;28;20028;-70
2021/05/27 04:38:39;;;;;;;23.10;12.30;;;19.50;90.50;;;;;;5080700;28;20075;-72
2021/05/27 04:41:06;;;;;;;18.52;11.73;;;19.60;90.50;;;;;;5097141;28;20043;-73
2021/05/27 04:43:32;;;;;;;21.10;11.93;;;19.70;90.40;;;;;;5115204;28;20047;-75
2021/05/27 04:45:58;;;;;;;19.38;11.68;;;19.70;90.30;;;;;;5096724;28;20075;-73
2021/05/27 04:48:24;;;;;;;18.45;11.40;;;19.70;90.40;;;;;;5115238;28;20088;-73
2021/05/27 04:50:52;;;;;;;19.45;11.90;;;19.70;90.20;;;;;;5115721;28;20047;-73
2021/05/27 04:53:20;;;;;;;20.92;11.90;;;19.60;90.30;;;;;;5097413;28;20046;-72
2021/05/27 04:55:47;;;;;;;20.13;11.77;;;19.70;90.30;;;;;;5097140;28;20031;-72
2021/05/27 04:58:14;;;;;;;15.18;10.43;;;19.80;90.20;;;;;;5080480;28;20081;-75
2021/05/27 05:00:40;;;;;;;17.63;11.73;;;19.80;90.00;;;;;;5115462;28;20036;-76
2021/05/27 05:03:06;;;;;;;17.35;12.15;;;20.00;89.70;;;;;;5096936;28;20036;-81
2021/05/27 05:05:35;;;;;;;18.65;11.25;;;20.00;89.50;;;;;;5115165;28;20483;-79
2021/05/27 05:08:02;;;;;;;20.40;9.85;;;20.10;89.30;;;;;;5115216;28;20039;-83
2021/05/27 05:10:30;;;;;;;15.73;10.32;;;20.20;88.90;;;;;;5115337;28;20035;-87
2021/05/27 05:12:56;;;;;;;15.45;9.93;;;20.40;88.40;;;;;;5096817;28;20046;-76
2021/05/27 05:15:27;;;;;;;12.82;8.73;;;20.60;88.10;;;;;;5114417;28;20508;-71
2021/05/27 05:18:00;;;;;;;16.02;10.00;;;20.70;87.70;;;;;;5114667;28;20079;-76
2021/05/27 05:20:32;;;;;;;15.32;10.80;;;20.80;87.30;;;;;;5114403;28;20138;-76
2021/05/27 05:22:59;;;;;;;15.10;10.70;;;20.90;86.60;;;;;;5097093;28;20028;-74
2021/05/27 05:25:27;;;;;;;34.05;10.85;;;21.00;86.20;;;;;;5096409;28;20032;-73
2021/05/27 05:27:57;;;;;;;14.65;10.50;;;21.00;86.40;;;;;;5115162;28;20035;-72
2021/05/27 05:30:26;;;;;;;14.75;10.52;;;21.00;86.50;;;;;;5114456;28;20130;-73
2021/05/27 05:32:52;;;;;;;12.98;9.48;;;21.00;86.00;;;;;;5096621;28;20035;-75
2021/05/27 05:35:19;;;;;;;15.75;9.90;;;21.00;86.00;;;;;;5096651;28;20065;-74
2021/05/27 05:37:47;;;;;;;16.27;10.23;;;21.00;86.30;;;;;;5096478;28;20071;-73
2021/05/27 05:40:16;;;;;;;14.18;9.90;;;21.00;86.50;;;;;;5096288;28;20118;-75
2021/05/27 05:42:43;;;;;;;15.45;10.02;;;21.00;86.50;;;;;;5079379;28;20042;-72
2021/05/27 05:45:11;;;;;;;13.55;10.52;;;21.10;86.60;;;;;;5096282;28;20042;-73
2021/05/27 05:47:37;;;;;;;16.08;10.45;;;21.20;86.10;;;;;;5096357;28;20506;-73
2021/05/27 05:50:05;;;;;;;15.05;9.32;;;21.20;85.50;;;;;;5114786;28;20031;-74
2021/05/27 05:52:31;;;;;;;16.00;9.85;;;21.20;85.30;;;;;;5114462;28;20079;-73
2021/05/27 05:54:58;;;;;;;16.98;10.60;;;21.30;85.00;;;;;;5096012;28;20050;-73
2021/05/27 05:57:24;;;;;;;15.25;10.43;;;21.50;84.40;;;;;;5096193;28;20043;-69
2021/05/27 05:59:50;;;;;;;14.48;9.70;;;21.60;84.10;;;;;;5095841;28;20484;-78
2021/05/27 06:02:16;;;;;;;12.85;8.40;;;21.70;83.60;;;;;;5096013;28;20114;-74
2021/05/27 06:04:42;;;;;;;12.05;8.07;;;22.00;83.20;;;;;;5095833;28;20028;-77
2021/05/27 06:07:31;;;;;;;10.73;8.68;;;22.30;82.30;;;;;;5084852;28;20048;-75
2021/05/27 06:09:57;;;;;;;9.77;7.90;;;22.50;81.70;;;;;;5113955;28;20134;-77
2021/05/27 06:12:23;;;;;;;11.05;8.20;;;22.70;80.90;;;;;;5095478;28;20396;-73
2021/05/27 06:14:49;;;;;;;11.27;7.97;;;22.90;80.40;;;;;;5113663;28;20042;-81
2021/05/27 06:17:15;;;;;;;13.20;7.93;;;23.00;79.30;;;;;;5114007;28;20040;-78
2021/05/27 06:19:41;;;;;;;14.02;9.18;;;23.10;78.90;;;;;;5078898;28;20476;-74
2021/05/27 06:22:25;;;;;;;9.70;7.60;;;23.20;78.80;;;;;;5095304;28;20039;-75
2021/05/27 06:24:53;;;;;;;12.70;9.50;;;23.30;78.30;;;;;;5113794;28;20035;-76
2021/05/27 06:27:20;;;;;;;10.32;7.38;;;23.10;78.10;;;;;;5095950;28;20027;-80
2021/05/27 06:29:46;;;;;;;12.05;8.65;;;23.00;78.40;;;;;;5095266;28;20499;-73
2021/05/27 06:32:11;;;;;;;10.57;7.78;;;22.90;78.60;;;;;;5095459;28;20059;-75
2021/05/27 06:34:37;;;;;;;11.18;8.07;;;22.50;79.10;;;;;;5095244;28;20024;-73
2021/05/27 06:37:03;;;;;;;14.95;8.38;;;22.60;79.50;;;;;;5113813;28;20188;-76
2021/05/27 06:39:29;;;;;;;12.20;8.55;;;22.60;78.80;;;;;;5095204;28;20043;-77
2021/05/27 06:41:56;;;;;;;11.85;8.77;;;22.60;78.90;;;;;;5095530;28;20040;-76
2021/05/27 06:44:25;;;;;;;11.40;8.15;;;22.60;78.80;;;;;;5095158;28;20043;-73
2021/05/27 06:46:51;;;;;;;12.30;8.63;;;22.50;79.00;;;;;;5112842;28;20043;-77
2021/05/27 06:49:17;;;;;;;10.45;8.02;;;22.50;79.40;;;;;;5094937;28;20035;-74
2021/05/27 06:51:43;;;;;;;10.52;8.35;;;22.60;79.80;;;;;;5113011;28;20035;-69
2021/05/27 06:54:09;;;;;;;12.45;8.00;;;22.60;79.40;;;;;;5113311;28;20114;-72
2021/05/27 06:56:37;;;;;;;10.00;8.00;;;22.60;79.40;;;;;;5113004;28;20069;-72
2021/05/27 06:59:03;;;;;;;10.65;8.10;;;22.70;79.60;;;;;;5113016;28;20035;-74
2021/05/27 07:01:29;;;;;;;11.80;7.75;;;22.60;79.20;;;;;;5094742;28;20372;-72
2021/05/27 07:03:55;;;;;;;16.92;9.15;;;22.80;79.10;;;;;;5113176;28;20067;-71
2021/05/27 07:06:21;;;;;;;11.27;7.78;;;22.90;78.50;;;;;;5112837;28;20560;-72
2021/05/27 07:08:47;;;;;;;11.32;8.63;;;23.00;78.00;;;;;;5094930;28;20047;-74
2021/05/27 07:11:13;;;;;;;10.93;7.97;;;23.10;77.40;;;;;;5094698;28;20513;-71
2021/05/27 07:13:39;;;;;;;9.95;7.10;;;23.30;76.90;;;;;;5094971;28;20114;-74
2021/05/27 07:16:05;;;;;;;9.88;7.70;;;23.20;76.70;;;;;;5094676;28;20484;-72
2021/05/27 07:18:31;;;;;;;9.38;6.95;;;23.20;76.60;;;;;;5112797;28;20088;-72
2021/05/27 07:20:57;;;;;;;10.65;8.35;;;23.30;76.10;;;;;;5112480;28;20077;-75
2021/05/27 07:23:23;;;;;;;10.40;8.10;;;23.40;75.70;;;;;;5112938;28;20078;-73
2021/05/27 07:25:49;;;;;;;9.40;8.05;;;23.60;75.30;;;;;;5095154;28;20042;-72
2021/05/27 07:28:16;;;;;;;9.40;7.15;;;23.90;74.70;;;;;;5094459;28;20356;-73
2021/05/27 07:30:42;;;;;;;10.30;7.93;;;24.50;73.50;;;;;;5113216;28;20031;-74
2021/05/27 07:33:08;;;;;;;12.85;7.90;;;25.00;72.00;;;;;;5095176;28;20038;-77
2021/05/27 07:35:34;;;;;;;10.68;7.63;;;25.20;71.10;;;;;;5114186;28;20514;-76
2021/05/27 07:38:00;;;;;;;10.23;7.97;;;25.40;71.00;;;;;;5094789;28;20031;-77
2021/05/27 07:40:27;;;;;;;8.82;6.45;;;25.20;70.90;;;;;;5094603;28;20035;-78
2021/05/27 07:42:54;;;;;;;9.38;7.05;;;25.10;70.50;;;;;;5094503;28;20035;-76
2021/05/27 07:45:20;;;;;;;8.85;6.72;;;25.00;70.70;;;;;;5094549;28;20063;-77
2021/05/27 07:47:46;;;;;;;6.95;6.05;;;24.80;71.00;;;;;;5112652;28;20118;-75
2021/05/27 07:50:13;;;;;;;8.63;5.72;;;24.80;71.20;;;;;;5112638;28;20115;-74
2021/05/27 07:52:39;;;;;;;8.05;6.03;;;24.80;71.10;;;;;;5094551;28;20044;-77
2021/05/27 07:55:06;;;;;;;6.95;5.95;;;25.00;70.50;;;;;;5112251;28;20043;-75
2021/05/27 07:57:32;;;;;;;7.35;5.60;;;25.20;70.00;;;;;;5113406;28;20044;-75
2021/05/27 07:59:58;;;;;;;6.78;5.65;;;25.40;69.40;;;;;;5116511;28;20115;-75
2021/05/27 08:02:24;;;;;;;8.02;6.20;;;25.70;68.70;;;;;;5097797;28;20057;-81
2021/05/27 08:04:50;;;;;;;7.00;5.55;;;26.00;68.20;;;;;;5116161;28;20050;-82
2021/05/27 08:07:15;;;;;;;6.15;5.55;;;26.40;68.00;;;;;;5098381;28;20048;-77
2021/05/27 08:09:41;;;;;;;8.13;6.38;;;26.80;66.80;;;;;;5117283;28;20122;-79
2021/05/27 08:12:08;;;;;;;8.95;6.90;;;26.80;65.70;;;;;;5116626;28;20108;-83
2021/05/27 08:14:34;;;;;;;9.10;7.30;;;26.60;65.50;;;;;;5116470;28;20040;-82
2021/05/27 08:17:01;;;;;;;11.02;6.53;;;26.60;65.30;;;;;;5117092;28;20461;-79
2021/05/27 08:19:27;;;;;;;9.57;6.88;;;26.60;65.20;;;;;;5116592;28;20135;-80
2021/05/27 08:21:53;;;;;;;7.78;6.28;;;26.50;65.20;;;;;;5097908;28;20073;-78
2021/05/27 08:24:19;;;;;;;9.32;6.80;;;26.50;65.30;;;;;;5116103;28;20052;-78
2021/05/27 08:26:45;;;;;;;8.18;6.20;;;26.30;65.40;;;;;;5115864;28;20054;-77
2021/05/27 08:29:11;;;;;;;12.10;6.15;;;26.00;65.80;;;;;;5116267;28;20101;-78
2021/05/27 08:31:39;;;;;;;11.07;7.93;;;25.80;66.50;;;;;;5097827;28;20043;-80
2021/05/27 08:34:07;;;;;;;10.25;7.53;;;25.60;67.00;;;;;;5115874;28;20046;-79
2021/05/27 08:36:33;;;;;;;10.50;7.80;;;25.20;67.50;;;;;;5115916;28;20043;-82
2021/05/27 08:38:59;;;;;;;11.30;8.02;;;25.00;67.90;;;;;;5116301;28;20083;-80
2021/05/27 08:41:25;;;;;;;9.38;7.28;;;24.80;68.50;;;;;;5116199;28;20036;-81
2021/05/27 08:43:51;;;;;;;14.27;7.75;;;24.60;69.30;;;;;;5115865;28;20055;-81
2021/05/27 08:46:20;;;;;;;10.50;6.85;;;24.70;69.10;;;;;;5080554;28;20031;-81
2021/05/27 08:48:46;;;;;;;7.70;6.30;;;24.60;69.30;;;;;;5115829;28;20082;-79
2021/05/27 08:51:13;;;;;;;11.63;7.45;;;24.60;69.30;;;;;;5115834;28;20526;-80
2021/05/27 08:53:40;;;;;;;14.10;8.02;;;24.60;69.20;;;;;;5116136;28;20067;-80
2021/05/27 08:56:06;;;;;;;9.85;6.88;;;24.50;68.90;;;;;;5097120;28;20491;-80
2021/05/27 08:58:32;;;;;;;9.73;6.90;;;24.40;69.20;;;;;;5115442;28;20122;-80
2021/05/27 09:00:58;;;;;;;8.85;7.07;;;24.40;69.20;;;;;;5081126;28;20115;-80
2021/05/27 09:03:38;;;;;;;11.05;7.85;;;24.30;69.00;;;;;;5115712;28;20196;-81
2021/05/27 09:06:04;;;;;;;11.05;7.30;;;24.10;69.20;;;;;;5097414;28;20123;-80
2021/05/27 09:08:33;;;;;;;8.48;7.00;;;24.00;69.50;;;;;;5115601;28;20114;-80
2021/05/27 09:11:05;;;;;;;11.00;7.07;;;23.90;69.80;;;;;;5081203;28;20031;-80
2021/05/27 09:13:32;;;;;;;9.00;6.70;;;23.90;70.10;;;;;;5097995;28;20031;-81
2021/05/27 09:16:16;;;;;;;9.35;6.60;;;24.00;69.90;;;;;;5097969;28;20082;-80
2021/05/27 09:18:43;;;;;;;12.30;7.72;;;24.10;69.70;;;;;;5098723;28;20050;-82
2021/05/27 09:21:14;;;;;;;11.23;8.10;;;24.10;69.50;;;;;;5097142;28;20058;-81
2021/05/27 09:23:51;;;;;;;16.05;7.57;;;24.00;69.70;;;;;;5097193;28;20507;-83
2021/05/27 09:26:19;;;;;;;10.60;7.18;;;23.80;70.10;;;;;;5115464;28;20075;-81
2021/05/27 09:28:47;;;;;;;9.75;6.93;;;23.90;69.90;;;;;;5115383;28;20074;-80
2021/05/27 09:31:19;;;;;;;14.15;8.30;;;23.90;69.90;;;;;;5097039;28;20097;-80
2021/05/27 09:34:00;;;;;;;9.57;6.60;;;23.90;70.30;;;;;;5096875;28;20035;-79
2021/05/27 09:36:26;;;;;;;10.40;7.47;;;23.90;70.20;;;;;;5115409;28;20035;-81
2021/05/27 09:38:57;;;;;;;10.70;6.80;;;23.80;70.00;;;;;;5119834;28;20047;-80
2021/05/27 09:41:25;;;;;;;10.27;6.63;;;23.80;70.00;;;;;;5102309;28;20039;-80
2021/05/27 09:43:56;;;;;;;8.88;6.47;;;23.80;70.00;;;;;;5120055;28;20047;-80
2021/05/27 09:46:24;;;;;;;9.57;6.75;;;23.80;70.10;;;;;;5104821;28;20050;-81
2021/05/27 09:49:04;;;;;;;11.10;7.68;;;23.80;70.10;;;;;;5101687;28;20100;-81
2021/05/27 09:51:30;;;;;;;9.68;6.65;;;23.90;70.00;;;;;;5120435;28;20051;-80
2021/05/27 09:53:57;;;;;;;12.13;6.78;;;24.00;70.10;;;;;;5097244;28;20036;-79
2021/05/27 09:56:41;;;;;;;7.88;6.65;;;24.00;70.10;;;;;;5079913;28;20035;-82
2021/05/27 09:59:12;;;;;;;12.63;6.95;;;24.10;70.00;;;;;;5096286;28;20443;-80
2021/05/27 10:02:07;;;;;;;9.57;7.03;;;24.30;69.50;;;;;;5114702;28;20031;-80
2021/05/27 10:04:33;;;;;;;10.65;7.03;;;24.40;69.70;;;;;;5096729;28;20452;-80
2021/05/27 10:06:58;;;;;;;10.15;6.78;;;24.50;69.50;;;;;;5114629;28;20065;-82
2021/05/27 10:09:25;;;;;;;10.95;6.53;;;24.60;69.00;;;;;;5114174;28;20061;-80
2021/05/27 10:11:51;;;;;;;9.75;6.15;;;24.70;68.90;;;;;;5114224;28;20042;-81
2021/05/27 10:14:19;;;;;;;8.70;6.20;;;24.80;68.20;;;;;;5096519;28;20121;-80
2021/05/27 10:16:45;;;;;;;10.32;6.95;;;24.90;67.90;;;;;;5113739;28;20059;-78
2021/05/27 10:19:13;;;;;;;9.10;6.72;;;24.90;67.40;;;;;;5113867;28;20048;-80
2021/05/27 10:21:39;;;;;;;11.38;6.80;;;24.90;67.00;;;;;;5113665;28;20114;-81
2021/05/27 10:24:07;;;;;;;12.18;7.65;;;24.90;67.00;;;;;;5113764;28;20031;-80
2021/05/27 10:26:33;;;;;;;9.80;6.38;;;24.70;67.20;;;;;;5114407;28;20143;-80
2021/05/27 10:29:01;;;;;;;12.75;7.25;;;24.60;67.50;;;;;;5113788;28;20550;-81
2021/05/27 10:31:35;;;;;;;13.55;6.97;;;24.50;67.80;;;;;;5095615;28;20114;-82
2021/05/27 10:34:02;;;;;;;15.47;7.13;;;24.50;68.00;;;;;;5078556;28;20063;-81
2021/05/27 10:36:45;;;;;;;10.55;6.80;;;24.40;68.00;;;;;;5113932;28;20031;-80
2021/05/27 10:39:31;;;;;;;11.45;7.07;;;24.50;68.60;;;;;;5113714;28;20074;-81
2021/05/27 10:41:57;;;;;;;13.15;8.18;;;24.40;68.50;;;;;;5113256;28;20035;-80
2021/05/27 10:44:23;;;;;;;12.38;7.50;;;24.30;67.80;;;;;;5113634;28;20027;-80
2021/05/27 10:46:53;;;;;;;18.98;7.40;;;24.30;68.30;;;;;;5095714;28;20031;-81
2021/05/27 10:49:38;;;;;;;10.73;6.78;;;24.20;68.70;;;;;;5079194;28;20031;-81
2021/05/27 10:52:34;;;;;;;12.45;8.07;;;24.30;68.80;;;;;;5113463;28;20038;-79
2021/05/27 10:55:04;;;;;;;13.40;7.70;;;24.30;68.70;;;;;;5113709;28;20043;-81
2021/05/27 10:57:39;;;;;;;17.10;8.13;;;24.20;68.60;;;;;;5095461;28;20502;-81
2021/05/27 11:00:30;;;;;;;12.05;8.35;;;24.10;68.70;;;;;;5113093;28;20062;-83
2021/05/27 11:03:16;;;;;;;17.30;8.90;;;24.00;69.40;;;;;;5094648;28;20086;-83
2021/05/27 11:06:23;;;;;;;12.60;7.75;;;24.10;69.80;;;;;;5113166;28;20062;-81
2021/05/27 11:09:20;;;;;;;12.27;8.77;;;24.10;69.70;;;;;;5112600;28;20044;-80
2021/05/27 11:11:49;;;;;;;12.70;8.35;;;24.10;69.80;;;;;;5112802;28;20028;-83
2021/05/27 11:14:39;;;;;;;11.35;8.25;;;24.20;69.50;;;;;;5077877;28;20044;-81
2021/05/27 11:19:47;;;;;;;12.65;7.90;;;24.40;69.40;;;;;;5113109;28;20044;-80
2021/05/27 11:22:29;;;;;;;12.27;8.10;;;24.50;69.70;;;;;;5094711;28;20042;-82
2021/05/27 11:25:08;;;;;;;13.23;8.75;;;24.70;69.30;;;;;;5094675;28;20039;-80
2021/05/27 11:27:56;;;;;;;14.65;9.02;;;24.80;69.00;;;;;;5112490;28;20032;-78
2021/05/27 11:30:36;;;;;;;14.32;8.35;;;24.90;68.30;;;;;;5094766;28;20039;-81
2021/05/27 11:33:07;;;;;;;16.75;10.20;;;24.90;67.50;;;;;;5117443;28;20096;-79
2021/05/27 11:35:40;;;;;;;10.85;7.15;;;24.90;66.70;;;;;;5099785;28;20047;-82
2021/05/27 11:38:12;;;;;;;14.02;8.00;;;24.90;66.30;;;;;;5100032;28;20131;-80
2021/05/27 11:40:46;;;;;;;11.68;8.20;;;25.10;65.80;;;;;;5117533;28;20031;-80
2021/05/27 11:43:13;;;;;;;13.80;8.20;;;25.20;65.40;;;;;;5098714;28;20035;-81
2021/05/27 11:45:40;;;;;;;15.00;8.40;;;25.20;65.20;;;;;;5116784;28;20455;-82
2021/05/27 11:48:11;;;;;;;12.55;8.45;;;25.20;64.90;;;;;;5098769;28;20389;-78
2021/05/27 11:50:37;;;;;;;15.27;8.95;;;25.20;64.90;;;;;;5098575;28;20500;-80
2021/05/27 11:53:04;;;;;;;15.65;9.30;;;25.20;65.10;;;;;;5116858;28;20084;-81
2021/05/27 11:55:31;;;;;;;12.43;8.70;;;25.10;65.30;;;;;;5116302;28;20534;-78
2021/05/27 11:57:57;;;;;;;12.93;8.48;;;25.00;65.40;;;;;;5116557;28;20385;-81
2021/05/27 12:00:24;;;;;;;13.57;7.97;;;25.00;66.00;;;;;;5116335;28;20050;-81
2021/05/27 12:02:54;;;;;;;14.07;8.77;;;24.90;66.10;;;;;;5080935;28;20039;-80
2021/05/27 12:05:29;;;;;;;14.18;8.75;;;24.90;66.30;;;;;;5097940;28;20131;-79
2021/05/27 12:08:13;;;;;;;16.90;9.27;;;24.80;65.90;;;;;;5116296;28;20031;-79
2021/05/27 12:10:47;;;;;;;14.00;8.13;;;24.80;65.50;;;;;;5081080;28;20526;-80
2021/05/27 12:13:21;;;;;;;11.60;8.23;;;25.00;65.10;;;;;;5097801;28;20527;-81
2021/05/27 12:15:48;;;;;;;15.68;8.48;;;25.10;64.70;;;;;;5116143;28;20055;-80
2021/05/27 12:18:16;;;;;;;14.13;8.70;;;25.00;64.50;;;;;;5098143;28;20447;-81
2021/05/27 12:20:45;;;;;;;10.48;7.68;;;25.00;65.10;;;;;;5098490;28;20049;-81
2021/05/27 12:23:15;;;;;;;13.32;8.50;;;24.90;64.20;;;;;;5115930;28;20376;-81
2021/05/27 12:25:46;;;;;;;15.13;8.77;;;24.70;64.80;;;;;;5080901;28;20042;-81
2021/05/27 12:28:31;;;;;;;18.35;9.13;;;24.90;64.80;;;;;;5098347;28;20043;-80
2021/05/27 12:30:59;;;;;;;11.70;8.18;;;24.90;64.50;;;;;;5099357;28;20415;-81
2021/05/27 12:33:28;;;;;;;13.82;8.32;;;25.10;64.50;;;;;;5102623;28;20054;-72
2021/05/27 12:35:55;;;;;;;12.25;6.88;;;25.20;64.30;;;;;;5116595;28;20109;-69
2021/05/27 12:38:25;;;;;;;11.30;7.43;;;25.30;64.30;;;;;;5115702;28;20475;-69
2021/05/27 12:40:56;;;;;;;12.25;7.00;;;25.40;64.50;;;;;;5115800;28;20043;-70
2021/05/27 12:43:34;;;;;;;12.15;8.40;;;25.40;64.30;;;;;;5115359;28;20070;-70
2021/05/27 12:46:02;;;;;;;13.60;8.23;;;25.40;64.40;;;;;;5080896;28;20039;-70
2021/05/27 12:48:32;;;;;;;14.93;9.02;;;25.40;64.30;;;;;;5080761;28;20069;-69
2021/05/27 12:51:02;;;;;;;15.60;8.88;;;25.30;64.30;;;;;;5097633;28;20044;-68
2021/05/27 12:53:31;;;;;;;13.02;8.82;;;25.10;64.40;;;;;;5115270;28;20130;-70